sensor_id;sensor_type;location;lat;lon;timestamp;temperature;humidity
8595;DHT22;4335;48.860;9.198;2024-02-14T00:02:19;4.40;99.90
8595;DHT22;4335;48.860;9.198;2024-02-14T00:04:46;4.40;99.90
8595;DHT22;4335;48.860;9.198;2024-02-14T00:07:14;4.40;99.90
8595;DHT22;4335;48.860;9.198;2024-02-14T00:09:44;4.30;99.90
8595;DHT22;4335;48.860;9.198;2024-02-14T00:12:15;4.40;99.90
8595;DHT22;4335;48.860;9.198;2024-02-14T00:14:48;4.30;99.90
8595;DHT22;4335;48.860;9.198;2024-02-14T00:17:17;4.40;99.90
8595;DHT22;4335;48.860;9.198;2024-02-14T00:19:44;4.40;99.90
8595;DHT22;4335;48.860;9.198;2024-02-14T00:22:12;4.40;99.90
8595;DHT22;4335;48.860;9.198;2024-02-14T00:24:42;4.30;99.90
8595;DHT22;4335;48.860;9.198;2024-02-14T00:27:09;4.30;99.90
8595;DHT22;4335;48.860;9.198;2024-02-14T00:29:37;4.40;99.90
8595;DHT22;4335;48.860;9.198;2024-02-14T00:32:05;4.30;99.90
8595;DHT22;4335;48.860;9.198;2024-02-14T00:34:41;4.30;99.90
8595;DHT22;4335;48.860;9.198;2024-02-14T00:37:11;4.40;99.90
8595;DHT22;4335;48.860;9.198;2024-02-14T00:39:39;4.40;99.90
8595;DHT22;4335;48.860;9.198;2024-02-14T00:42:09;4.50;99.90
8595;DHT22;4335;48.860;9.198;2024-02-14T00:44:37;4.50;99.90
8595;DHT22;4335;48.860;9.198;2024-02-14T00:47:04;4.60;99.90
8595;DHT22;4335;48.860;9.198;2024-02-14T00:49:34;4.70;99.90
8595;DHT22;4335;48.860;9.198;2024-02-14T00:52:06;4.70;99.90
8595;DHT22;4335;48.860;9.198;2024-02-14T00:54:35;4.70;99.90
8595;DHT22;4335;48.860;9.198;2024-02-14T00:57:02;4.80;99.90
8595;DHT22;4335;48.860;9.198;2024-02-14T00:59:31;4.80;99.90
8595;DHT22;4335;48.860;9.198;2024-02-14T01:02:04;4.80;99.90
8595;DHT22;4335;48.860;9.198;2024-02-14T01:04:31;4.90;99.90
8595;DHT22;4335;48.860;9.198;2024-02-14T01:07:02;4.90;99.90
8595;DHT22;4335;48.860;9.198;2024-02-14T01:09:34;5.00;99.90
8595;DHT22;4335;48.860;9.198;2024-02-14T01:12:05;5.10;99.90
8595;DHT22;4335;48.860;9.198;2024-02-14T01:14:32;5.10;99.90
8595;DHT22;4335;48.860;9.198;2024-02-14T01:17:00;5.10;99.90
8595;DHT22;4335;48.860;9.198;2024-02-14T01:19:32;5.20;99.90
8595;DHT22;4335;48.860;9.198;2024-02-14T01:22:03;5.20;99.90
8595;DHT22;4335;48.860;9.198;2024-02-14T01:24:35;5.20;99.90
8595;DHT22;4335;48.860;9.198;2024-02-14T01:27:03;5.30;99.90
8595;DHT22;4335;48.860;9.198;2024-02-14T01:29:31;5.30;99.90
8595;DHT22;4335;48.860;9.198;2024-02-14T01:31:58;5.30;99.90
8595;DHT22;4335;48.860;9.198;2024-02-14T01:34:27;5.30;99.90
8595;DHT22;4335;48.860;9.198;2024-02-14T01:36:58;5.40;99.90
8595;DHT22;4335;48.860;9.198;2024-02-14T01:39:36;5.40;99.90
8595;DHT22;4335;48.860;9.198;2024-02-14T01:42:06;5.40;99.90
8595;DHT22;4335;48.860;9.198;2024-02-14T01:44:36;5.40;99.90
8595;DHT22;4335;48.860;9.198;2024-02-14T01:47:06;5.40;99.90
8595;DHT22;4335;48.860;9.198;2024-02-14T01:49:35;5.40;99.90
8595;DHT22;4335;48.860;9.198;2024-02-14T01:52:06;5.40;99.90
8595;DHT22;4335;48.860;9.198;2024-02-14T01:54:34;5.40;99.90
8595;DHT22;4335;48.860;9.198;2024-02-14T01:57:08;5.50;99.90
8595;DHT22;4335;48.860;9.198;2024-02-14T01:59:39;5.50;99.90
8595;DHT22;4335;48.860;9.198;2024-02-14T02:02:07;5.50;99.90
8595;DHT22;4335;48.860;9.198;2024-02-14T02:04:35;5.50;99.90
8595;DHT22;4335;48.860;9.198;2024-02-14T02:07:03;5.60;99.90
8595;DHT22;4335;48.860;9.198;2024-02-14T02:09:33;5.60;99.90
8595;DHT22;4335;48.860;9.198;2024-02-14T02:12:01;5.60;99.90
8595;DHT22;4335;48.860;9.198;2024-02-14T02:14:33;5.60;99.90
8595;DHT22;4335;48.860;9.198;2024-02-14T02:17:07;5.60;99.90
8595;DHT22;4335;48.860;9.198;2024-02-14T02:19:35;5.60;99.90
8595;DHT22;4335;48.860;9.198;2024-02-14T02:22:03;5.70;99.90
8595;DHT22;4335;48.860;9.198;2024-02-14T02:24:36;5.70;99.90
8595;DHT22;4335;48.860;9.198;2024-02-14T02:27:08;5.70;99.90
8595;DHT22;4335;48.860;9.198;2024-02-14T02:29:38;5.80;99.90
8595;DHT22;4335;48.860;9.198;2024-02-14T02:32:15;5.80;99.90
8595;DHT22;4335;48.860;9.198;2024-02-14T02:34:43;5.80;99.90
8595;DHT22;4335;48.860;9.198;2024-02-14T02:37:11;5.80;99.90
8595;DHT22;4335;48.860;9.198;2024-02-14T02:39:40;5.90;99.90
8595;DHT22;4335;48.860;9.198;2024-02-14T02:42:13;5.80;99.90
8595;DHT22;4335;48.860;9.198;2024-02-14T02:44:45;5.80;99.90
8595;DHT22;4335;48.860;9.198;2024-02-14T02:47:13;5.80;99.90
8595;DHT22;4335;48.860;9.198;2024-02-14T02:49:42;5.80;99.90
8595;DHT22;4335;48.860;9.198;2024-02-14T02:52:18;5.80;99.90
8595;DHT22;4335;48.860;9.198;2024-02-14T02:54:52;5.80;99.90
8595;DHT22;4335;48.860;9.198;2024-02-14T02:57:20;5.80;99.90
8595;DHT22;4335;48.860;9.198;2024-02-14T03:00:03;5.90;99.90
8595;DHT22;4335;48.860;9.198;2024-02-14T03:02:31;5.90;99.90
8595;DHT22;4335;48.860;9.198;2024-02-14T03:04:59;5.90;99.90
8595;DHT22;4335;48.860;9.198;2024-02-14T03:07:32;5.90;99.90
8595;DHT22;4335;48.860;9.198;2024-02-14T03:10:01;5.90;99.90
8595;DHT22;4335;48.860;9.198;2024-02-14T03:12:29;5.90;99.90
8595;DHT22;4335;48.860;9.198;2024-02-14T03:14:58;5.80;99.90
8595;DHT22;4335;48.860;9.198;2024-02-14T03:17:31;5.80;99.90
8595;DHT22;4335;48.860;9.198;2024-02-14T03:19:59;5.70;99.90
8595;DHT22;4335;48.860;9.198;2024-02-14T03:22:29;5.60;99.90
8595;DHT22;4335;48.860;9.198;2024-02-14T03:25:01;5.60;99.90
8595;DHT22;4335;48.860;9.198;2024-02-14T03:27:34;5.60;99.90
8595;DHT22;4335;48.860;9.198;2024-02-14T03:30:11;5.50;99.90
8595;DHT22;4335;48.860;9.198;2024-02-14T03:32:41;5.50;99.90
8595;DHT22;4335;48.860;9.198;2024-02-14T03:35:12;5.40;99.90
8595;DHT22;4335;48.860;9.198;2024-02-14T03:37:47;5.40;99.90
8595;DHT22;4335;48.860;9.198;2024-02-14T03:40:16;5.30;99.90
8595;DHT22;4335;48.860;9.198;2024-02-14T03:42:43;5.30;99.90
8595;DHT22;4335;48.860;9.198;2024-02-14T03:45:12;5.30;99.90
8595;DHT22;4335;48.860;9.198;2024-02-14T03:47:43;5.30;99.90
8595;DHT22;4335;48.860;9.198;2024-02-14T03:50:16;5.30;99.90
8595;DHT22;4335;48.860;9.198;2024-02-14T03:52:46;5.40;99.90
8595;DHT22;4335;48.860;9.198;2024-02-14T03:55:15;5.40;99.90
8595;DHT22;4335;48.860;9.198;2024-02-14T03:57:44;5.40;99.90
8595;DHT22;4335;48.860;9.198;2024-02-14T04:00:13;5.40;99.90
8595;DHT22;4335;48.860;9.198;2024-02-14T04:02:46;5.50;99.90
8595;DHT22;4335;48.860;9.198;2024-02-14T04:05:14;5.50;99.90
8595;DHT22;4335;48.860;9.198;2024-02-14T04:07:42;5.50;99.90
8595;DHT22;4335;48.860;9.198;2024-02-14T04:10:31;5.50;99.90
8595;DHT22;4335;48.860;9.198;2024-02-14T04:12:58;5.50;99.90
8595;DHT22;4335;48.860;9.198;2024-02-14T04:15:26;5.50;99.90
8595;DHT22;4335;48.860;9.198;2024-02-14T04:17:53;5.60;99.90
8595;DHT22;4335;48.860;9.198;2024-02-14T04:20:21;5.60;99.90
8595;DHT22;4335;48.860;9.198;2024-02-14T04:23:00;5.60;99.90
8595;DHT22;4335;48.860;9.198;2024-02-14T04:25:27;5.70;99.90
8595;DHT22;4335;48.860;9.198;2024-02-14T04:27:56;5.70;99.90
8595;DHT22;4335;48.860;9.198;2024-02-14T04:30:25;5.60;99.90
8595;DHT22;4335;48.860;9.198;2024-02-14T04:32:52;5.70;99.90
8595;DHT22;4335;48.860;9.198;2024-02-14T04:35:23;5.70;99.90
8595;DHT22;4335;48.860;9.198;2024-02-14T04:37:50;5.70;99.90
8595;DHT22;4335;48.860;9.198;2024-02-14T04:40:21;5.70;99.90
8595;DHT22;4335;48.860;9.198;2024-02-14T04:42:48;5.80;99.90
8595;DHT22;4335;48.860;9.198;2024-02-14T04:45:20;5.80;99.90
8595;DHT22;4335;48.860;9.198;2024-02-14T04:47:50;5.80;99.90
8595;DHT22;4335;48.860;9.198;2024-02-14T04:50:18;5.80;99.90
8595;DHT22;4335;48.860;9.198;2024-02-14T04:52:45;5.80;99.90
8595;DHT22;4335;48.860;9.198;2024-02-14T04:55:13;5.80;99.90
8595;DHT22;4335;48.860;9.198;2024-02-14T04:57:46;5.80;99.90
8595;DHT22;4335;48.860;9.198;2024-02-14T05:00:21;5.80;99.90
8595;DHT22;4335;48.860;9.198;2024-02-14T05:02:48;5.80;99.90
8595;DHT22;4335;48.860;9.198;2024-02-14T05:05:20;5.80;99.90
8595;DHT22;4335;48.860;9.198;2024-02-14T05:07:47;5.90;99.90
8595;DHT22;4335;48.860;9.198;2024-02-14T05:10:17;5.90;99.90
8595;DHT22;4335;48.860;9.198;2024-02-14T05:12:48;5.90;99.90
8595;DHT22;4335;48.860;9.198;2024-02-14T05:15:16;6.00;99.90
8595;DHT22;4335;48.860;9.198;2024-02-14T05:17:45;6.10;99.90
8595;DHT22;4335;48.860;9.198;2024-02-14T05:20:18;6.10;99.90
8595;DHT22;4335;48.860;9.198;2024-02-14T05:22:46;6.10;99.90
8595;DHT22;4335;48.860;9.198;2024-02-14T05:25:20;6.20;99.90
8595;DHT22;4335;48.860;9.198;2024-02-14T05:27:47;6.20;99.90
8595;DHT22;4335;48.860;9.198;2024-02-14T05:30:15;6.20;99.90
8595;DHT22;4335;48.860;9.198;2024-02-14T05:32:50;6.20;99.90
8595;DHT22;4335;48.860;9.198;2024-02-14T05:35:24;6.20;99.90
8595;DHT22;4335;48.860;9.198;2024-02-14T05:37:54;6.10;99.90
8595;DHT22;4335;48.860;9.198;2024-02-14T05:40:27;6.10;99.90
8595;DHT22;4335;48.860;9.198;2024-02-14T05:42:58;6.10;99.90
8595;DHT22;4335;48.860;9.198;2024-02-14T05:45:25;6.20;99.90
8595;DHT22;4335;48.860;9.198;2024-02-14T05:47:54;6.20;99.90
8595;DHT22;4335;48.860;9.198;2024-02-14T05:50:25;6.20;99.90
8595;DHT22;4335;48.860;9.198;2024-02-14T05:52:55;6.20;99.90
8595;DHT22;4335;48.860;9.198;2024-02-14T05:55:24;6.20;99.90
8595;DHT22;4335;48.860;9.198;2024-02-14T05:57:54;6.20;99.90
8595;DHT22;4335;48.860;9.198;2024-02-14T06:00:32;6.30;99.90
8595;DHT22;4335;48.860;9.198;2024-02-14T06:03:01;6.30;99.90
8595;DHT22;4335;48.860;9.198;2024-02-14T06:05:28;6.30;99.90
8595;DHT22;4335;48.860;9.198;2024-02-14T06:07:59;6.20;99.90
8595;DHT22;4335;48.860;9.198;2024-02-14T06:10:31;6.20;99.90
8595;DHT22;4335;48.860;9.198;2024-02-14T06:13:02;6.10;99.90
8595;DHT22;4335;48.860;9.198;2024-02-14T06:15:36;6.10;99.90
8595;DHT22;4335;48.860;9.198;2024-02-14T06:18:05;6.00;99.90
8595;DHT22;4335;48.860;9.198;2024-02-14T06:20:32;6.10;99.90
8595;DHT22;4335;48.860;9.198;2024-02-14T06:23:03;6.00;99.90
8595;DHT22;4335;48.860;9.198;2024-02-14T06:25:33;5.90;99.90
8595;DHT22;4335;48.860;9.198;2024-02-14T06:28:04;5.90;99.90
8595;DHT22;4335;48.860;9.198;2024-02-14T06:30:35;5.80;99.90
8595;DHT22;4335;48.860;9.198;2024-02-14T06:33:07;5.80;99.90
8595;DHT22;4335;48.860;9.198;2024-02-14T06:35:34;5.80;99.90
8595;DHT22;4335;48.860;9.198;2024-02-14T06:38:07;5.80;99.90
8595;DHT22;4335;48.860;9.198;2024-02-14T06:40:35;5.80;99.90
8595;DHT22;4335;48.860;9.198;2024-02-14T06:43:12;5.80;99.90
8595;DHT22;4335;48.860;9.198;2024-02-14T06:45:42;5.80;99.90
8595;DHT22;4335;48.860;9.198;2024-02-14T06:48:11;5.80;99.90
8595;DHT22;4335;48.860;9.198;2024-02-14T06:50:44;5.90;99.90
8595;DHT22;4335;48.860;9.198;2024-02-14T06:53:15;6.00;99.90
8595;DHT22;4335;48.860;9.198;2024-02-14T06:55:42;6.00;99.90
8595;DHT22;4335;48.860;9.198;2024-02-14T06:58:10;6.00;99.90
8595;DHT22;4335;48.860;9.198;2024-02-14T07:00:46;6.10;99.90
8595;DHT22;4335;48.860;9.198;2024-02-14T07:03:24;6.10;99.90
8595;DHT22;4335;48.860;9.198;2024-02-14T07:05:54;6.20;99.90
8595;DHT22;4335;48.860;9.198;2024-02-14T07:08:22;6.20;99.90
8595;DHT22;4335;48.860;9.198;2024-02-14T07:10:54;6.30;99.90
8595;DHT22;4335;48.860;9.198;2024-02-14T07:13:25;6.30;99.90
8595;DHT22;4335;48.860;9.198;2024-02-14T07:15:52;6.30;99.90
8595;DHT22;4335;48.860;9.198;2024-02-14T07:18:24;6.30;99.90
8595;DHT22;4335;48.860;9.198;2024-02-14T07:20:55;6.30;99.90
8595;DHT22;4335;48.860;9.198;2024-02-14T07:23:22;6.30;99.90
8595;DHT22;4335;48.860;9.198;2024-02-14T07:25:49;6.40;99.90
8595;DHT22;4335;48.860;9.198;2024-02-14T07:28:20;6.40;99.90
8595;DHT22;4335;48.860;9.198;2024-02-14T07:30:48;6.40;99.90
8595;DHT22;4335;48.860;9.198;2024-02-14T07:33:15;6.50;99.90
8595;DHT22;4335;48.860;9.198;2024-02-14T07:35:44;6.50;99.90
8595;DHT22;4335;48.860;9.198;2024-02-14T07:38:13;6.60;99.90
8595;DHT22;4335;48.860;9.198;2024-02-14T07:40:51;6.60;99.90
8595;DHT22;4335;48.860;9.198;2024-02-14T07:43:22;6.60;99.90
8595;DHT22;4335;48.860;9.198;2024-02-14T07:45:49;6.70;99.90
8595;DHT22;4335;48.860;9.198;2024-02-14T07:48:20;6.80;99.90
8595;DHT22;4335;48.860;9.198;2024-02-14T07:50:49;6.90;99.90
8595;DHT22;4335;48.860;9.198;2024-02-14T07:53:17;7.00;99.90
8595;DHT22;4335;48.860;9.198;2024-02-14T07:55:44;7.10;99.90
8595;DHT22;4335;48.860;9.198;2024-02-14T07:58:11;7.10;99.90
8595;DHT22;4335;48.860;9.198;2024-02-14T08:00:45;7.20;99.90
8595;DHT22;4335;48.860;9.198;2024-02-14T08:03:12;7.20;99.90
8595;DHT22;4335;48.860;9.198;2024-02-14T08:05:43;7.30;99.90
8595;DHT22;4335;48.860;9.198;2024-02-14T08:08:12;7.40;99.90
8595;DHT22;4335;48.860;9.198;2024-02-14T08:10:45;7.50;99.90
8595;DHT22;4335;48.860;9.198;2024-02-14T08:13:13;7.50;99.90
8595;DHT22;4335;48.860;9.198;2024-02-14T08:15:42;7.60;99.90
8595;DHT22;4335;48.860;9.198;2024-02-14T08:18:09;7.70;99.90
8595;DHT22;4335;48.860;9.198;2024-02-14T08:20:37;7.70;99.90
8595;DHT22;4335;48.860;9.198;2024-02-14T08:23:06;7.80;99.90
8595;DHT22;4335;48.860;9.198;2024-02-14T08:25:35;7.90;99.90
8595;DHT22;4335;48.860;9.198;2024-02-14T08:28:09;8.00;99.90
8595;DHT22;4335;48.860;9.198;2024-02-14T08:30:36;8.00;99.90
8595;DHT22;4335;48.860;9.198;2024-02-14T08:33:04;8.00;99.90
8595;DHT22;4335;48.860;9.198;2024-02-14T08:35:35;8.00;99.90
8595;DHT22;4335;48.860;9.198;2024-02-14T08:38:02;8.10;99.90
8595;DHT22;4335;48.860;9.198;2024-02-14T08:40:32;8.10;99.90
8595;DHT22;4335;48.860;9.198;2024-02-14T08:43:04;8.20;99.90
8595;DHT22;4335;48.860;9.198;2024-02-14T08:45:38;8.20;99.90
8595;DHT22;4335;48.860;9.198;2024-02-14T08:48:07;8.30;99.90
8595;DHT22;4335;48.860;9.198;2024-02-14T08:50:34;8.40;99.90
8595;DHT22;4335;48.860;9.198;2024-02-14T08:53:05;8.50;99.90
8595;DHT22;4335;48.860;9.198;2024-02-14T08:55:38;8.60;99.90
8595;DHT22;4335;48.860;9.198;2024-02-14T08:58:07;8.80;99.90
8595;DHT22;4335;48.860;9.198;2024-02-14T09:00:35;9.00;99.90
8595;DHT22;4335;48.860;9.198;2024-02-14T09:03:03;9.10;99.90
8595;DHT22;4335;48.860;9.198;2024-02-14T09:05:37;9.20;99.90
8595;DHT22;4335;48.860;9.198;2024-02-14T09:08:05;9.30;99.90
8595;DHT22;4335;48.860;9.198;2024-02-14T09:10:32;9.30;99.90
8595;DHT22;4335;48.860;9.198;2024-02-14T09:13:03;9.40;99.90
8595;DHT22;4335;48.860;9.198;2024-02-14T09:15:34;9.50;99.90
8595;DHT22;4335;48.860;9.198;2024-02-14T09:18:01;9.50;99.90
8595;DHT22;4335;48.860;9.198;2024-02-14T09:20:35;9.60;99.90
8595;DHT22;4335;48.860;9.198;2024-02-14T09:23:03;9.60;99.90
8595;DHT22;4335;48.860;9.198;2024-02-14T09:25:34;9.60;99.90
8595;DHT22;4335;48.860;9.198;2024-02-14T09:28:07;9.60;99.90
8595;DHT22;4335;48.860;9.198;2024-02-14T09:30:39;9.70;99.90
8595;DHT22;4335;48.860;9.198;2024-02-14T09:33:06;9.80;99.90
8595;DHT22;4335;48.860;9.198;2024-02-14T09:35:34;9.90;99.90
8595;DHT22;4335;48.860;9.198;2024-02-14T09:38:06;10.10;99.90
8595;DHT22;4335;48.860;9.198;2024-02-14T09:40:34;10.30;99.90
8595;DHT22;4335;48.860;9.198;2024-02-14T09:43:11;10.40;99.90
8595;DHT22;4335;48.860;9.198;2024-02-14T09:45:42;10.60;99.90
8595;DHT22;4335;48.860;9.198;2024-02-14T09:48:13;10.80;99.90
8595;DHT22;4335;48.860;9.198;2024-02-14T09:50:44;11.00;99.90
8595;DHT22;4335;48.860;9.198;2024-02-14T09:53:12;11.10;99.90
8595;DHT22;4335;48.860;9.198;2024-02-14T09:55:42;11.20;99.90
8595;DHT22;4335;48.860;9.198;2024-02-14T09:58:09;11.30;99.90
8595;DHT22;4335;48.860;9.198;2024-02-14T10:00:44;11.40;99.90
8595;DHT22;4335;48.860;9.198;2024-02-14T10:03:13;11.50;99.90
8595;DHT22;4335;48.860;9.198;2024-02-14T10:05:44;11.50;99.90
8595;DHT22;4335;48.860;9.198;2024-02-14T10:08:11;11.50;99.90
8595;DHT22;4335;48.860;9.198;2024-02-14T10:10:39;11.60;99.90
8595;DHT22;4335;48.860;9.198;2024-02-14T10:13:07;11.60;99.90
8595;DHT22;4335;48.860;9.198;2024-02-14T10:15:36;11.60;99.90
8595;DHT22;4335;48.860;9.198;2024-02-14T10:18:04;11.60;99.90
8595;DHT22;4335;48.860;9.198;2024-02-14T10:20:34;11.70;99.90
8595;DHT22;4335;48.860;9.198;2024-02-14T10:23:08;11.80;99.90
8595;DHT22;4335;48.860;9.198;2024-02-14T10:25:35;12.00;99.90
8595;DHT22;4335;48.860;9.198;2024-02-14T10:28:04;12.10;99.90
8595;DHT22;4335;48.860;9.198;2024-02-14T10:30:34;12.50;99.90
8595;DHT22;4335;48.860;9.198;2024-02-14T10:33:06;13.70;99.90
8595;DHT22;4335;48.860;9.198;2024-02-14T10:35:35;15.00;99.90
8595;DHT22;4335;48.860;9.198;2024-02-14T10:38:10;16.80;99.90
8595;DHT22;4335;48.860;9.198;2024-02-14T10:40:38;18.90;99.90
8595;DHT22;4335;48.860;9.198;2024-02-14T10:43:06;20.80;99.90
8595;DHT22;4335;48.860;9.198;2024-02-14T10:45:35;21.60;98.50
8595;DHT22;4335;48.860;9.198;2024-02-14T10:48:07;22.40;97.10
8595;DHT22;4335;48.860;9.198;2024-02-14T10:50:42;22.00;94.30
8595;DHT22;4335;48.860;9.198;2024-02-14T10:53:14;23.10;94.10
8595;DHT22;4335;48.860;9.198;2024-02-14T10:55:49;24.60;90.90
8595;DHT22;4335;48.860;9.198;2024-02-14T10:58:17;25.20;86.10
8595;DHT22;4335;48.860;9.198;2024-02-14T11:00:44;24.30;82.50
8595;DHT22;4335;48.860;9.198;2024-02-14T11:03:12;24.10;83.10
8595;DHT22;4335;48.860;9.198;2024-02-14T11:05:47;22.60;85.10
8595;DHT22;4335;48.860;9.198;2024-02-14T11:08:18;20.80;91.00
8595;DHT22;4335;48.860;9.198;2024-02-14T11:10:53;19.90;93.90
8595;DHT22;4335;48.860;9.198;2024-02-14T11:13:20;18.80;97.20
8595;DHT22;4335;48.860;9.198;2024-02-14T11:15:54;17.50;99.90
8595;DHT22;4335;48.860;9.198;2024-02-14T11:18:25;16.50;99.90
8595;DHT22;4335;48.860;9.198;2024-02-14T11:20:54;15.60;99.90
8595;DHT22;4335;48.860;9.198;2024-02-14T11:23:23;15.00;99.90
8595;DHT22;4335;48.860;9.198;2024-02-14T11:26:02;14.60;99.90
8595;DHT22;4335;48.860;9.198;2024-02-14T11:28:31;14.50;99.90
8595;DHT22;4335;48.860;9.198;2024-02-14T11:31:00;14.30;99.90
8595;DHT22;4335;48.860;9.198;2024-02-14T11:33:32;14.00;99.90
8595;DHT22;4335;48.860;9.198;2024-02-14T11:36:08;13.80;99.90
8595;DHT22;4335;48.860;9.198;2024-02-14T11:38:40;13.60;99.90
8595;DHT22;4335;48.860;9.198;2024-02-14T11:41:11;13.60;99.90
8595;DHT22;4335;48.860;9.198;2024-02-14T11:43:38;13.50;99.90
8595;DHT22;4335;48.860;9.198;2024-02-14T11:46:06;13.40;99.90
8595;DHT22;4335;48.860;9.198;2024-02-14T11:48:34;13.30;99.90
8595;DHT22;4335;48.860;9.198;2024-02-14T11:51:04;13.20;99.90
8595;DHT22;4335;48.860;9.198;2024-02-14T11:53:33;13.10;99.90
8595;DHT22;4335;48.860;9.198;2024-02-14T11:56:01;12.90;99.90
8595;DHT22;4335;48.860;9.198;2024-02-14T11:58:31;12.90;99.90
8595;DHT22;4335;48.860;9.198;2024-02-14T12:01:03;12.90;99.90
8595;DHT22;4335;48.860;9.198;2024-02-14T12:03:32;12.80;99.90
8595;DHT22;4335;48.860;9.198;2024-02-14T12:06:03;12.70;99.90
8595;DHT22;4335;48.860;9.198;2024-02-14T12:08:34;12.70;99.90
8595;DHT22;4335;48.860;9.198;2024-02-14T12:11:01;12.70;99.90
8595;DHT22;4335;48.860;9.198;2024-02-14T12:13:33;12.70;99.90
8595;DHT22;4335;48.860;9.198;2024-02-14T12:16:03;12.80;99.90
8595;DHT22;4335;48.860;9.198;2024-02-14T12:18:34;12.70;99.90
8595;DHT22;4335;48.860;9.198;2024-02-14T12:21:14;12.70;99.90
8595;DHT22;4335;48.860;9.198;2024-02-14T12:23:44;12.70;99.90
8595;DHT22;4335;48.860;9.198;2024-02-14T12:26:11;12.70;99.90
8595;DHT22;4335;48.860;9.198;2024-02-14T12:28:46;12.80;99.90
8595;DHT22;4335;48.860;9.198;2024-02-14T12:31:22;13.00;99.90
8595;DHT22;4335;48.860;9.198;2024-02-14T12:33:49;13.10;99.90
8595;DHT22;4335;48.860;9.198;2024-02-14T12:36:19;13.30;99.90
8595;DHT22;4335;48.860;9.198;2024-02-14T12:38:53;13.40;99.90
8595;DHT22;4335;48.860;9.198;2024-02-14T12:41:26;13.50;99.90
8595;DHT22;4335;48.860;9.198;2024-02-14T12:43:55;13.60;99.90
8595;DHT22;4335;48.860;9.198;2024-02-14T12:46:23;13.80;99.90
8595;DHT22;4335;48.860;9.198;2024-02-14T12:48:50;13.90;99.90
8595;DHT22;4335;48.860;9.198;2024-02-14T12:51:19;14.00;99.90
8595;DHT22;4335;48.860;9.198;2024-02-14T12:53:46;14.20;99.90
8595;DHT22;4335;48.860;9.198;2024-02-14T12:56:14;14.30;99.90
8595;DHT22;4335;48.860;9.198;2024-02-14T12:58:44;14.40;99.90
8595;DHT22;4335;48.860;9.198;2024-02-14T13:01:12;14.50;99.90
8595;DHT22;4335;48.860;9.198;2024-02-14T13:03:40;14.50;99.90
8595;DHT22;4335;48.860;9.198;2024-02-14T13:06:18;14.60;99.90
8595;DHT22;4335;48.860;9.198;2024-02-14T13:08:46;14.60;99.90
8595;DHT22;4335;48.860;9.198;2024-02-14T13:11:14;14.60;99.90
8595;DHT22;4335;48.860;9.198;2024-02-14T13:13:47;14.60;99.90
8595;DHT22;4335;48.860;9.198;2024-02-14T13:16:14;14.60;99.90
8595;DHT22;4335;48.860;9.198;2024-02-14T13:18:42;14.60;99.90
8595;DHT22;4335;48.860;9.198;2024-02-14T13:21:09;14.60;99.90
8595;DHT22;4335;48.860;9.198;2024-02-14T13:23:45;14.50;99.90
8595;DHT22;4335;48.860;9.198;2024-02-14T13:26:13;14.50;99.90
8595;DHT22;4335;48.860;9.198;2024-02-14T13:28:41;14.50;99.90
8595;DHT22;4335;48.860;9.198;2024-02-14T13:31:11;14.40;99.90
8595;DHT22;4335;48.860;9.198;2024-02-14T13:33:38;14.40;99.90
8595;DHT22;4335;48.860;9.198;2024-02-14T13:36:09;14.40;99.90
8595;DHT22;4335;48.860;9.198;2024-02-14T13:38:44;14.30;99.90
8595;DHT22;4335;48.860;9.198;2024-02-14T13:41:12;14.30;99.90
8595;DHT22;4335;48.860;9.198;2024-02-14T13:43:39;14.20;99.90
8595;DHT22;4335;48.860;9.198;2024-02-14T13:46:07;14.20;99.90
8595;DHT22;4335;48.860;9.198;2024-02-14T13:48:35;14.20;99.90
8595;DHT22;4335;48.860;9.198;2024-02-14T13:51:06;14.20;99.90
8595;DHT22;4335;48.860;9.198;2024-02-14T13:53:34;14.20;99.90
8595;DHT22;4335;48.860;9.198;2024-02-14T13:56:04;14.20;99.90
8595;DHT22;4335;48.860;9.198;2024-02-14T13:58:34;14.20;99.90
8595;DHT22;4335;48.860;9.198;2024-02-14T14:01:07;14.20;99.90
8595;DHT22;4335;48.860;9.198;2024-02-14T14:03:34;14.30;99.90
8595;DHT22;4335;48.860;9.198;2024-02-14T14:06:03;14.20;99.90
8595;DHT22;4335;48.860;9.198;2024-02-14T14:08:36;14.20;99.90
8595;DHT22;4335;48.860;9.198;2024-02-14T14:11:07;14.30;99.90
8595;DHT22;4335;48.860;9.198;2024-02-14T14:13:38;14.30;99.90
8595;DHT22;4335;48.860;9.198;2024-02-14T14:16:08;14.30;99.90
8595;DHT22;4335;48.860;9.198;2024-02-14T14:18:37;14.30;99.90
8595;DHT22;4335;48.860;9.198;2024-02-14T14:21:05;14.30;99.90
8595;DHT22;4335;48.860;9.198;2024-02-14T14:23:32;14.20;99.90
8595;DHT22;4335;48.860;9.198;2024-02-14T14:26:09;14.10;99.90
8595;DHT22;4335;48.860;9.198;2024-02-14T14:28:46;13.90;99.90
8595;DHT22;4335;48.860;9.198;2024-02-14T14:31:13;13.90;99.90
8595;DHT22;4335;48.860;9.198;2024-02-14T14:33:43;13.90;99.90
8595;DHT22;4335;48.860;9.198;2024-02-14T14:36:11;13.80;99.90
8595;DHT22;4335;48.860;9.198;2024-02-14T14:38:47;13.80;99.90
8595;DHT22;4335;48.860;9.198;2024-02-14T14:41:19;13.80;99.90
8595;DHT22;4335;48.860;9.198;2024-02-14T14:43:46;13.70;99.90
8595;DHT22;4335;48.860;9.198;2024-02-14T14:46:18;13.60;99.90
8595;DHT22;4335;48.860;9.198;2024-02-14T14:48:45;13.60;99.90
8595;DHT22;4335;48.860;9.198;2024-02-14T14:51:13;13.60;99.90
8595;DHT22;4335;48.860;9.198;2024-02-14T14:53:40;13.60;99.90
8595;DHT22;4335;48.860;9.198;2024-02-14T14:56:08;13.60;99.90
8595;DHT22;4335;48.860;9.198;2024-02-14T14:58:37;13.60;99.90
8595;DHT22;4335;48.860;9.198;2024-02-14T15:01:11;13.60;99.90
8595;DHT22;4335;48.860;9.198;2024-02-14T15:03:39;13.60;99.90
8595;DHT22;4335;48.860;9.198;2024-02-14T15:06:07;13.60;99.90
8595;DHT22;4335;48.860;9.198;2024-02-14T15:08:37;13.60;99.90
8595;DHT22;4335;48.860;9.198;2024-02-14T15:11:10;13.60;99.90
8595;DHT22;4335;48.860;9.198;2024-02-14T15:13:48;13.60;99.90
8595;DHT22;4335;48.860;9.198;2024-02-14T15:16:15;13.70;99.90
8595;DHT22;4335;48.860;9.198;2024-02-14T15:18:43;13.70;99.90
8595;DHT22;4335;48.860;9.198;2024-02-14T15:21:11;13.70;99.90
8595;DHT22;4335;48.860;9.198;2024-02-14T15:23:39;13.70;99.90
8595;DHT22;4335;48.860;9.198;2024-02-14T15:26:07;13.70;99.90
8595;DHT22;4335;48.860;9.198;2024-02-14T15:28:37;13.50;99.90
8595;DHT22;4335;48.860;9.198;2024-02-14T15:31:09;13.70;99.90
8595;DHT22;4335;48.860;9.198;2024-02-14T15:33:53;13.70;99.90
8595;DHT22;4335;48.860;9.198;2024-02-14T15:36:21;13.70;99.90
8595;DHT22;4335;48.860;9.198;2024-02-14T15:38:52;13.70;99.90
8595;DHT22;4335;48.860;9.198;2024-02-14T15:41:24;13.70;99.90
8595;DHT22;4335;48.860;9.198;2024-02-14T15:43:52;13.70;99.90
8595;DHT22;4335;48.860;9.198;2024-02-14T15:46:20;13.70;99.90
8595;DHT22;4335;48.860;9.198;2024-02-14T15:48:51;13.70;99.90
8595;DHT22;4335;48.860;9.198;2024-02-14T15:51:19;13.70;99.90
8595;DHT22;4335;48.860;9.198;2024-02-14T15:53:55;13.60;99.90
8595;DHT22;4335;48.860;9.198;2024-02-14T15:56:22;13.60;99.90
8595;DHT22;4335;48.860;9.198;2024-02-14T15:58:53;13.50;99.90
8595;DHT22;4335;48.860;9.198;2024-02-14T16:01:22;13.50;99.90
8595;DHT22;4335;48.860;9.198;2024-02-14T16:03:49;13.50;99.90
8595;DHT22;4335;48.860;9.198;2024-02-14T16:06:22;13.50;99.90
8595;DHT22;4335;48.860;9.198;2024-02-14T16:08:50;13.40;99.90
8595;DHT22;4335;48.860;9.198;2024-02-14T16:11:18;13.40;99.90
8595;DHT22;4335;48.860;9.198;2024-02-14T16:13:45;13.40;99.90
8595;DHT22;4335;48.860;9.198;2024-02-14T16:16:12;13.30;99.90
8595;DHT22;4335;48.860;9.198;2024-02-14T16:18:44;13.30;99.90
8595;DHT22;4335;48.860;9.198;2024-02-14T16:21:11;13.40;99.90
8595;DHT22;4335;48.860;9.198;2024-02-14T16:23:41;13.40;99.90
8595;DHT22;4335;48.860;9.198;2024-02-14T16:26:12;13.30;99.90
8595;DHT22;4335;48.860;9.198;2024-02-14T16:28:43;13.30;99.90
8595;DHT22;4335;48.860;9.198;2024-02-14T16:31:13;13.30;99.90